Terminal Aerodrome Forecast
Issued by NWS Newport/Morehead City, NC

Home | Current Version | Previous Version | Text Only | Print | Product List | Glossary On
Versions: 1 2 3 4 5 6 7 8 9 10 11 12
000
FTUS42 KMHX 271720
TAFEWN
TAF
KEWN 271720Z 2718/2818 15009KT P6SM VCTS SCT030CB BKN040
     FM280200 17007KT P6SM BKN050
     FM280800 VRB04KT P6SM FEW050 SCT200=

USA.gov is the U.S. government's official web portal to all federal, state and local government web resources and services.